Time;durP1;ratioP1;P1;durP2;ratioP2;P2;SDS_P1;SDS_P2;PMS_P1;PMS_P2;Temp;Humidity;BMP_temperature;BMP_pressure;BME280_temperature;BME280_humidity;BME280_pressure;Samples;Min_cycle;Max_cycle;Signal;HPM_P1;HPM_P2
2021/01/27 00:02:25;;;;;;;16.17;8.85;;;;;;;8.62;84.19;99888.41;4450933;32;20096;-74
2021/01/27 00:04:50;;;;;;;15.75;8.65;;;;;;;8.59;83.89;99886.50;4452295;32;20082;-75
2021/01/27 00:07:16;;;;;;;16.33;8.88;;;;;;;8.43;84.81;99881.72;4451024;32;20181;-73
2021/01/27 00:09:44;;;;;;;17.05;9.00;;;;;;;8.54;84.61;99890.62;4448293;32;20048;-73
2021/01/27 00:12:10;;;;;;;16.62;8.48;;;;;;;8.45;84.77;99896.09;4449780;32;20049;-74
2021/01/27 00:14:36;;;;;;;16.55;8.32;;;;;;;8.61;84.63;99886.81;4452353;32;20073;-75
2021/01/27 00:17:01;;;;;;;18.15;10.00;;;;;;;8.56;85.05;99884.56;4448891;32;20211;-74
2021/01/27 00:19:27;;;;;;;15.05;8.30;;;;;;;8.70;84.61;99887.75;4449874;32;20045;-74
2021/01/27 00:21:52;;;;;;;14.60;8.23;;;;;;;8.58;85.26;99910.94;4451291;32;20029;-75
2021/01/27 00:24:18;;;;;;;17.70;8.63;;;;;;;8.62;84.52;99905.22;4448970;32;20079;-73
2021/01/27 00:26:44;;;;;;;17.37;8.82;;;;;;;8.59;84.47;99903.31;4451470;32;20025;-73
2021/01/27 00:29:09;;;;;;;14.52;8.40;;;;;;;8.50;84.61;99898.34;4448050;32;20072;-73
2021/01/27 00:31:35;;;;;;;16.40;8.63;;;;;;;8.41;84.57;99897.44;4449605;32;20026;-74
2021/01/27 00:34:01;;;;;;;14.30;8.45;;;;;;;8.54;84.43;99893.44;4443552;27;20062;-73
2021/01/27 00:36:26;;;;;;;16.50;9.02;;;;;;;8.53;84.07;99891.84;4418492;32;20049;-74
2021/01/27 00:38:52;;;;;;;18.77;9.32;;;;;;;8.42;83.99;99893.38;4414914;32;20111;-73
2021/01/27 00:41:17;;;;;;;15.80;9.27;;;;;;;8.55;83.47;99892.19;4413264;32;20478;-75
2021/01/27 00:43:43;;;;;;;17.37;8.50;;;;;;;8.57;83.20;99906.56;4418869;32;20495;-77
2021/01/27 00:46:09;;;;;;;16.90;8.52;;;;;;;8.57;83.58;99895.34;4416243;32;20025;-75
2021/01/27 00:48:34;;;;;;;14.30;8.95;;;;;;;8.64;83.29;99894.34;4414300;32;20176;-74
2021/01/27 00:51:00;;;;;;;14.60;8.63;;;;;;;8.70;83.09;99900.97;4418559;32;20088;-74
2021/01/27 00:53:25;;;;;;;18.30;9.13;;;;;;;8.80;83.23;99911.09;4419773;32;20136;-75
2021/01/27 00:55:51;;;;;;;14.87;8.57;;;;;;;8.82;83.07;99900.19;4415844;32;20021;-73
2021/01/27 00:58:17;;;;;;;15.80;8.63;;;;;;;8.90;82.55;99907.19;4418268;32;20131;-75
2021/01/27 01:00:43;;;;;;;15.82;8.88;;;;;;;8.89;82.41;99906.38;4417198;32;20146;-73
2021/01/27 01:03:10;;;;;;;16.42;8.95;;;;;;;8.81;82.38;99895.84;4417012;32;20034;-75
2021/01/27 01:05:40;;;;;;;14.73;8.90;;;;;;;9.16;81.79;99897.53;4418221;32;20037;-75
2021/01/27 01:08:08;;;;;;;13.65;8.32;;;;;;;9.29;81.43;99903.91;4418564;32;20080;-75
2021/01/27 01:10:38;;;;;;;14.32;7.95;;;;;;;9.32;81.48;99905.84;4417329;32;21156;-74
2021/01/27 01:13:06;;;;;;;18.12;8.43;;;;;;;9.43;81.07;99907.09;4419542;32;20042;-76
2021/01/27 01:15:32;;;;;;;19.90;8.75;;;;;;;9.28;80.88;99889.13;4415828;32;20065;-72
2021/01/27 01:17:58;;;;;;;15.85;8.43;;;;;;;9.32;81.06;99894.59;4414864;32;20061;-74
2021/01/27 01:20:24;;;;;;;15.45;7.97;;;;;;;9.37;81.65;99883.59;4413781;32;20078;-75
2021/01/27 01:22:54;;;;;;;15.35;8.30;;;;;;;9.43;81.48;99883.81;4418853;32;20081;-75
2021/01/27 01:25:23;;;;;;;14.98;8.60;;;;;;;9.52;81.75;99881.91;4417594;32;20068;-73
2021/01/27 01:27:49;;;;;;;15.90;8.52;;;;;;;9.59;81.97;99880.88;4416575;32;20054;-74
2021/01/27 01:32:52;;;;;;;15.00;8.38;;;;;;;9.75;80.22;99895.56;3996172;31;15122748;-73
2021/01/27 01:35:20;;;;;;;14.20;8.13;;;;;;;9.75;80.22;99895.56;4459340;32;20341;-75
2021/01/27 01:37:46;;;;;;;14.35;8.45;;;;;;;9.32;81.49;99901.00;4461169;32;20063;-75
2021/01/27 01:40:16;;;;;;;16.92;8.80;;;;;;;9.28;81.17;99902.34;4458658;32;20090;-75
2021/01/27 01:42:44;;;;;;;16.45;8.88;;;;;;;9.29;81.79;99887.88;4461957;32;20072;-74
2021/01/27 01:47:55;;;;;;;18.67;8.15;;;;;;;9.64;81.00;99895.13;3991220;32;15022633;-74
2021/01/27 01:50:23;;;;;;;18.33;9.32;;;;;;;9.64;81.00;99895.13;4440237;32;20104;-75
2021/01/27 01:52:48;;;;;;;15.98;8.48;;;;;;;9.27;82.12;99909.97;4444479;32;20067;-73
2021/01/27 01:55:16;;;;;;;16.48;8.70;;;;;;;9.22;81.83;99904.16;4442849;32;20059;-74
2021/01/27 01:57:47;;;;;;;20.30;9.07;;;;;;;9.22;82.01;99904.94;4443982;32;20403;-73
2021/01/27 02:00:14;;;;;;;19.60;8.88;;;;;;;9.07;82.46;99889.78;4446028;32;20323;-75
2021/01/27 02:02:41;;;;;;;21.87;8.95;;;;;;;9.00;82.98;99897.66;4446485;32;20467;-76
2021/01/27 02:05:13;;;;;;;21.85;9.30;;;;;;;9.00;87.48;99901.25;4444503;32;20073;-75
2021/01/27 02:07:40;;;;;;;23.98;8.55;;;;;;;9.28;87.13;99900.34;4445411;32;20075;-75
2021/01/27 02:10:08;;;;;;;20.73;8.32;;;;;;;9.38;87.85;99904.03;4442323;32;20068;-76
2021/01/27 02:18:25;;;;;;;18.05;7.82;;;;;;;10.24;84.55;99906.34;3984901;32;15025063;-74
2021/01/27 02:24:22;;;;;;;22.08;7.93;;;;;;;10.26;83.67;99944.00;3989722;32;15022909;-73
2021/01/27 02:32:31;;;;;;;20.92;8.57;;;;;;;10.30;83.03;99941.03;3989552;32;15022887;-74
2021/01/27 02:37:45;;;;;;;22.73;7.40;;;;;;;10.39;82.65;99929.88;3988976;32;15029107;-75
2021/01/27 02:40:49;;;;;;;20.55;8.40;;;;;;;10.39;82.65;99929.88;4443667;32;20080;-73
2021/01/27 02:43:31;;;;;;;26.75;8.60;;;;;;;9.88;83.75;99915.97;4446994;32;20068;-73
2021/01/27 02:46:27;;;;;;;28.12;8.35;;;;;;;10.05;83.33;99913.78;4443931;32;20108;-74
2021/01/27 02:52:12;;;;;;;22.55;7.62;;;;;;;10.34;82.12;99917.19;3990117;32;15023192;-76
2021/01/27 02:54:47;;;;;;;22.77;8.27;;;;;;;10.34;82.12;99917.19;4436750;32;20051;-76
2021/01/27 03:00:00;;;;;;;23.50;8.10;;;;;;;10.37;81.75;99916.25;3985258;32;15026321;-76
2021/01/27 03:08:04;;;;;;;24.60;7.85;;;;;;;10.42;81.67;99929.75;3992364;32;15022782;-76
2021/01/27 03:10:36;;;;;;;24.83;8.00;;;;;;;9.98;83.46;99911.22;4439254;32;20041;-74
2021/01/27 03:13:02;;;;;;;25.40;7.28;;;;;;;9.97;83.64;99909.63;4439813;32;20088;-75
2021/01/27 03:15:28;;;;;;;23.15;8.05;;;;;;;9.96;83.54;99922.94;4443847;32;20144;-76
2021/01/27 03:17:58;;;;;;;20.73;7.35;;;;;;;9.95;83.81;99915.72;4443054;32;20053;-77
2021/01/27 03:20:31;;;;;;;23.30;7.85;;;;;;;9.98;83.68;99925.28;4435951;32;20109;-74
2021/01/27 03:23:04;;;;;;;27.98;8.18;;;;;;;10.05;83.67;99908.97;4439892;32;20063;-75
2021/01/27 03:25:34;;;;;;;25.17;8.18;;;;;;;10.04;83.94;99901.75;4436721;32;20084;-76
2021/01/27 03:28:23;;;;;;;22.35;7.28;;;;;;;10.13;83.66;99895.47;4440203;32;20034;-74
2021/01/27 03:30:51;;;;;;;22.37;7.82;;;;;;;10.38;82.38;99906.59;4441410;32;20025;-77
2021/01/27 03:33:23;;;;;;;27.92;8.52;;;;;;;10.49;82.05;99909.03;4434724;32;20042;-77
2021/01/27 03:41:15;;;;;;;22.50;8.47;;;;;;;11.01;80.76;99923.88;3997172;31;15019054;-76
2021/01/27 03:43:52;;;;;;;27.20;8.43;;;;;;;10.73;81.49;99932.63;4451991;32;20154;-75
2021/01/27 03:49:24;;;;;;;27.87;8.95;;;;;;;10.92;81.21;99940.72;4014950;31;15018237;-74
2021/01/27 03:54:57;;;;;;;27.23;8.25;;;;;;;10.91;79.82;99955.25;3988483;32;15024912;-72
2021/01/27 03:57:26;;;;;;;23.35;8.60;;;;;;;10.91;79.82;99955.25;4442123;32;20033;-73
2021/01/27 03:59:54;;;;;;;20.12;7.25;;;;;;;10.47;80.19;99936.81;4446238;32;20046;-74
2021/01/27 04:02:22;;;;;;;21.98;7.55;;;;;;;10.40;80.48;99946.28;4444601;32;20428;-72
2021/01/27 04:04:49;;;;;;;22.02;8.32;;;;;;;10.37;80.93;99943.62;4445133;32;20068;-76
2021/01/27 04:07:15;;;;;;;22.45;8.65;;;;;;;10.44;81.01;99944.16;4445483;32;20143;-75
2021/01/27 04:09:41;;;;;;;19.98;7.90;;;;;;;10.34;80.55;99944.53;4442808;32;20092;-75
2021/01/27 04:12:07;;;;;;;21.92;8.30;;;;;;;10.32;80.67;99949.81;4447092;32;20409;-75
2021/01/27 04:14:34;;;;;;;19.20;8.50;;;;;;;10.26;80.79;99946.00;4443588;32;20029;-74
2021/01/27 04:16:59;;;;;;;25.40;8.70;;;;;;;9.97;80.33;99943.38;4444482;32;20209;-74
2021/01/27 04:19:25;;;;;;;27.92;8.80;;;;;;;9.91;81.51;99948.00;4444400;32;20095;-72
2021/01/27 04:21:50;;;;;;;25.50;8.98;;;;;;;9.74;81.53;99944.56;4443903;32;20033;-72
2021/01/27 04:24:16;;;;;;;26.85;10.38;;;;;;;9.64;81.91;99937.25;4446794;32;20045;-73
2021/01/27 04:26:44;;;;;;;25.15;10.35;;;;;;;9.53;82.32;99948.06;4446878;32;20059;-73
2021/01/27 04:29:09;;;;;;;29.98;10.40;;;;;;;9.56;82.94;99944.34;4439410;32;20141;-72
2021/01/27 04:31:35;;;;;;;28.15;11.57;;;;;;;9.54;82.63;99955.25;4437767;32;20140;-73
2021/01/27 04:34:01;;;;;;;31.30;12.95;;;;;;;9.44;82.43;99950.75;4438492;32;20095;-72
2021/01/27 04:36:26;;;;;;;24.37;10.52;;;;;;;9.27;83.29;99949.28;4427771;32;20030;-74
2021/01/27 04:38:52;;;;;;;32.00;10.32;;;;;;;9.30;84.15;99951.19;4428673;32;20370;-75
2021/01/27 04:41:18;;;;;;;29.83;9.55;;;;;;;9.22;84.16;99961.09;4426324;32;20077;-73
2021/01/27 04:43:47;;;;;;;22.62;8.75;;;;;;;9.33;84.62;99972.00;4424259;32;20070;-73
2021/01/27 04:52:02;;;;;;;25.75;8.80;;;;;;;10.22;81.70;99970.66;3988889;32;15023139;-77
2021/01/27 05:05:14;;;;;;;23.62;9.15;;;;;;;10.13;81.30;99959.34;4006108;31;15015320;-74
2021/01/27 05:10:25;;;;;;;24.58;7.93;;;;;;;10.17;81.59;99952.34;4013766;31;15018708;-76
2021/01/27 05:12:56;;;;;;;20.80;8.13;;;;;;;10.17;81.59;99952.34;4473393;32;20428;-74
2021/01/27 05:15:23;;;;;;;18.58;7.78;;;;;;;9.81;82.53;99940.72;4470432;32;20022;-76
2021/01/27 05:17:50;;;;;;;20.88;8.52;;;;;;;9.73;81.88;99951.41;4451746;32;20461;-73
2021/01/27 05:20:19;;;;;;;24.83;8.95;;;;;;;9.76;81.54;99955.34;4465700;32;20063;-78
2021/01/27 05:22:45;;;;;;;27.25;8.45;;;;;;;9.63;81.30;99951.75;4470239;32;20045;-74
2021/01/27 05:25:33;;;;;;;20.15;8.00;;;;;;;9.63;81.86;99949.72;4467035;32;20017;-78
2021/01/27 05:28:01;;;;;;;29.40;9.00;;;;;;;9.71;82.17;99953.91;4473213;32;20075;-75
2021/01/27 05:30:33;;;;;;;23.20;8.18;;;;;;;9.74;82.20;99952.19;4470216;32;20060;-77
2021/01/27 05:32:59;;;;;;;21.80;8.63;;;;;;;9.81;82.12;99947.13;4468847;32;21117;-77
2021/01/27 05:38:31;;;;;;;23.83;9.05;;;;;;;10.28;80.91;99968.84;3984868;32;15025144;-75
2021/01/27 05:43:40;;;;;;;22.97;8.50;;;;;;;10.33;80.74;99974.66;4007680;31;15019049;-74
2021/01/27 05:48:49;;;;;;;28.65;8.73;;;;;;;10.21;78.76;99960.66;3983324;32;15023181;-78
2021/01/27 05:51:25;;;;;;;24.52;9.35;;;;;;;10.21;78.76;99960.66;4436962;32;20030;-74
2021/01/27 05:53:50;;;;;;;26.08;8.32;;;;;;;9.71;80.23;99970.75;4441299;32;20432;-75
2021/01/27 05:56:19;;;;;;;22.73;8.25;;;;;;;9.61;81.59;99980.28;4437296;32;20042;-76
2021/01/27 05:58:56;;;;;;;25.00;9.00;;;;;;;9.59;81.18;99979.19;4444379;32;20136;-72
2021/01/27 06:04:18;;;;;;;23.48;8.25;;;;;;;10.00;80.37;99967.75;4011959;31;15016131;-75
2021/01/27 06:09:40;;;;;;;22.67;10.65;;;;;;;9.55;81.78;99958.84;3989159;32;15022614;-72
2021/01/27 06:14:48;;;;;;;30.73;10.48;;;;;;;10.10;80.49;99955.41;3985894;32;15022507;-75
2021/01/27 06:20:01;;;;;;;34.50;11.38;;;;;;;9.71;80.97;99956.69;3986157;32;15023937;-75
2021/01/27 06:25:53;;;;;;;34.67;12.93;;;;;;;9.92;81.11;99949.59;4011123;31;15017435;-73
2021/01/27 06:37:03;;;;;;;28.58;10.88;;;;;;;9.96;80.31;99965.09;3985420;32;15024233;-76
2021/01/27 06:56:56;;;;;;;32.40;10.47;;;;;;;9.99;81.23;100025.22;3992166;31;15025040;-73
2021/01/27 07:05:12;;;;;;;37.95;8.82;;;;;;;10.18;81.80;100021.38;3989816;32;15022172;-74
2021/01/27 07:13:23;;;;;;;30.98;8.27;;;;;;;10.83;80.24;100032.78;3987287;32;15023173;-75
2021/01/27 07:21:39;;;;;;;37.00;8.32;;;;;;;10.67;81.09;100033.72;3985964;32;15025841;-76
2021/01/27 07:24:17;;;;;;;33.20;8.05;;;;;;;10.67;81.09;100033.72;4434328;32;20069;-77
2021/01/27 07:26:51;;;;;;;26.62;7.85;;;;;;;10.31;82.07;100027.00;4442035;32;20030;-75
2021/01/27 07:31:58;;;;;;;37.10;7.97;;;;;;;11.03;80.34;100038.84;3989645;32;15022315;-74
2021/01/27 07:34:34;;;;;;;43.70;7.62;;;;;;;11.03;80.34;100038.84;4434025;32;20138;-72
2021/01/27 07:42:55;;;;;;;36.30;8.35;;;;;;;11.05;78.45;100036.38;3989378;32;15026176;-73
2021/01/27 07:45:26;;;;;;;35.08;9.30;;;;;;;11.05;78.45;100036.38;4426712;32;20084;-73
2021/01/27 07:48:16;;;;;;;33.38;7.65;;;;;;;10.71;80.38;100034.38;4439575;32;20033;-75
2021/01/27 07:50:49;;;;;;;35.38;7.37;;;;;;;10.73;80.45;100029.09;4437602;32;20089;-72
2021/01/27 07:53:38;;;;;;;35.58;7.65;;;;;;;10.79;79.80;100027.25;4441758;32;20416;-75
2021/01/27 07:59:13;;;;;;;42.40;9.25;;;;;;;11.30;79.41;100053.13;3986836;32;15024042;-77
2021/01/27 08:02:09;;;;;;;32.92;10.13;;;;;;;11.30;79.41;100053.13;4442922;32;20025;-77
2021/01/27 08:04:46;;;;;;;38.60;9.02;;;;;;;10.95;80.19;100046.00;4443886;32;20033;-75
2021/01/27 08:07:32;;;;;;;30.55;8.88;;;;;;;11.00;79.93;100051.81;4435755;32;20420;-73
2021/01/27 08:13:00;;;;;;;38.95;10.77;;;;;;;11.51;78.30;100058.72;4011711;31;15015679;-76
2021/01/27 08:18:13;;;;;;;36.78;10.55;;;;;;;11.56;78.54;100043.25;3959170;32;15723619;-76
2021/01/27 08:20:42;;;;;;;35.80;10.65;;;;;;;11.56;78.54;100043.25;4431604;32;20076;-75
2021/01/27 08:23:30;;;;;;;39.72;10.15;;;;;;;11.15;79.56;100050.06;4436167;32;20087;-74
2021/01/27 08:26:01;;;;;;;39.60;12.23;;;;;;;11.12;80.28;100042.53;4432668;32;20513;-73
2021/01/27 08:44:34;;;;;;;33.35;9.65;;;;;;;12.32;75.92;100077.25;3986618;32;15022407;-74
2021/01/27 08:50:00;;;;;;;29.52;9.93;;;;;;;11.99;75.02;100080.59;4008865;31;15017270;-74
2021/01/27 08:55:31;;;;;;;42.10;10.30;;;;;;;11.59;77.52;100093.84;3987390;32;15026077;-75
2021/01/27 09:01:21;;;;;;;43.38;12.20;;;;;;;12.07;75.29;100100.84;4007201;31;15017676;-73
2021/01/27 09:09:23;;;;;;;34.97;10.20;;;;;;;11.91;75.70;100132.88;4002146;31;15018155;-74
2021/01/27 09:11:58;;;;;;;45.00;13.18;;;;;;;11.91;75.70;100132.88;4452977;32;20025;-74
2021/01/27 09:14:23;;;;;;;49.93;13.77;;;;;;;11.51;77.79;100120.72;4450391;32;20099;-74
2021/01/27 09:16:51;;;;;;;47.30;12.25;;;;;;;11.51;79.40;100114.31;4442279;32;20069;-73
2021/01/27 09:19:23;;;;;;;50.10;12.48;;;;;;;11.66;78.47;100116.13;4431941;32;20034;-73
2021/01/27 09:24:50;;;;;;;42.70;11.77;;;;;;;12.22;77.38;100115.94;3986577;32;15022486;-74
2021/01/27 09:32:33;;;;;;;60.30;22.10;;;;;;;12.25;75.59;100115.00;4002444;31;15018761;-73
2021/01/27 09:35:21;;;;;;;90.85;34.22;;;;;;;12.25;75.59;100115.00;4442128;32;20051;-74
2021/01/27 09:38:10;;;;;;;42.10;9.25;;;;;;;11.76;74.37;100112.13;4437769;32;20098;-74
2021/01/27 09:43:18;;;;;;;34.60;8.33;;;;;;;11.84;74.36;100099.31;3997082;31;15016054;-74
2021/01/27 09:45:48;;;;;;;40.05;9.10;;;;;;;11.73;74.76;100096.12;4449711;32;20084;-73
2021/01/27 09:48:17;;;;;;;41.03;9.15;;;;;;;11.65;74.34;100089.22;4456577;32;20037;-73
2021/01/27 09:51:01;;;;;;;37.97;8.13;;;;;;;11.57;75.59;100092.75;4455382;32;20130;-74
2021/01/27 09:53:33;;;;;;;40.08;8.40;;;;;;;11.80;74.01;100098.69;4452497;32;20096;-77
2021/01/27 09:56:00;;;;;;;34.60;6.93;;;;;;;11.95;73.51;100108.16;4453770;32;20389;-74
2021/01/27 09:58:27;;;;;;;31.17;7.70;;;;;;;11.46;73.41;100100.81;4446958;32;20055;-76
2021/01/27 10:01:01;;;;;;;42.10;8.10;;;;;;;11.60;73.67;100105.91;4443837;32;20365;-74
2021/01/27 10:06:02;;;;;;;37.23;7.87;;;;;;;11.97;74.41;100141.34;4011054;31;15016324;-74
2021/01/27 10:11:11;;;;;;;33.78;6.80;;;;;;;12.16;73.79;100139.56;3981132;32;15024637;-76
2021/01/27 10:13:39;;;;;;;36.80;8.73;;;;;;;12.16;73.79;100139.56;4435401;32;20124;-76
2021/01/27 10:18:45;;;;;;;37.40;7.33;;;;;;;12.32;72.71;100159.84;4008268;31;15014869;-74
2021/01/27 10:21:16;;;;;;;38.80;7.65;;;;;;;12.32;72.71;100159.84;4464118;32;20167;-74
2021/01/27 10:23:45;;;;;;;40.25;7.10;;;;;;;11.92;73.08;100164.69;4455277;32;20082;-74
2021/01/27 10:29:17;;;;;;;35.55;6.57;;;;;;;12.65;72.76;100177.06;3969409;32;15019597;-77
2021/01/27 10:31:47;;;;;;;38.83;7.47;;;;;;;12.65;72.76;100177.06;4420360;32;20076;-74
2021/01/27 10:40:15;;;;;;;34.65;6.47;;;;;;;12.95;70.63;100191.09;3997175;31;15019620;-75
2021/01/27 10:42:44;;;;;;;35.70;7.40;;;;;;;12.95;70.63;100191.09;4457423;32;20067;-75
2021/01/27 10:45:15;;;;;;;27.60;7.50;;;;;;;12.69;71.39;100200.28;4460681;32;20033;-77
2021/01/27 10:47:43;;;;;;;43.45;7.87;;;;;;;12.70;70.29;100194.16;4453559;32;21247;-75
2021/01/27 10:50:10;;;;;;;31.05;7.87;;;;;;;12.73;70.09;100193.22;4453726;32;20040;-75
2021/01/27 10:52:36;;;;;;;45.25;8.80;;;;;;;12.58;69.26;100185.81;4445946;32;20783;-76
2021/01/27 10:55:10;;;;;;;46.10;8.50;;;;;;;12.54;69.52;100194.44;4453280;32;20445;-75
2021/01/27 10:57:36;;;;;;;50.03;9.82;;;;;;;12.49;69.20;100195.03;4447733;32;20136;-77
2021/01/27 11:00:06;;;;;;;44.88;8.65;;;;;;;12.37;70.29;100195.94;4444015;32;20100;-76
2021/01/27 11:02:32;;;;;;;35.75;8.32;;;;;;;12.37;69.95;100198.78;4451950;32;20052;-76
2021/01/27 11:04:58;;;;;;;32.53;7.97;;;;;;;12.42;70.64;100206.59;4449426;32;20090;-76
2021/01/27 11:07:23;;;;;;;50.75;8.00;;;;;;;12.65;70.29;100213.75;4458593;32;20041;-75
2021/01/27 11:09:49;;;;;;;40.15;6.65;;;;;;;12.70;68.62;100208.28;4456204;32;20081;-76
2021/01/27 11:12:15;;;;;;;37.08;6.25;;;;;;;12.46;68.52;100195.19;4459709;32;20480;-75
2021/01/27 11:14:41;;;;;;;36.88;7.12;;;;;;;12.40;69.28;100199.87;4454832;32;20100;-75
2021/01/27 11:17:07;;;;;;;47.25;7.60;;;;;;;12.40;69.76;100199.87;4460574;32;20041;-75
2021/01/27 11:19:32;;;;;;;38.30;6.95;;;;;;;12.30;70.06;100193.37;4458318;32;20062;-74
2021/01/27 11:21:58;;;;;;;44.17;7.03;;;;;;;12.17;71.10;100195.53;4460843;32;20080;-76
2021/01/27 11:24:24;;;;;;;43.78;6.97;;;;;;;12.25;70.75;100193.22;4460405;32;20069;-75
2021/01/27 11:26:50;;;;;;;51.45;7.65;;;;;;;12.29;69.79;100203.09;4457848;32;20053;-78
2021/01/27 11:29:15;;;;;;;46.45;7.15;;;;;;;12.46;69.19;100192.38;4458017;32;20459;-75
2021/01/27 11:31:41;;;;;;;43.05;7.45;;;;;;;12.57;68.75;100204.78;4455439;32;20044;-76
2021/01/27 11:34:07;;;;;;;41.10;6.75;;;;;;;12.66;68.87;100201.19;4456785;32;20080;-75
2021/01/27 11:36:32;;;;;;;36.65;6.15;;;;;;;12.95;68.13;100201.59;4460186;32;20253;-74
2021/01/27 11:38:58;;;;;;;41.95;7.32;;;;;;;13.13;67.40;100202.44;4457159;32;20081;-75
2021/01/27 11:41:24;;;;;;;30.62;7.40;;;;;;;13.35;66.01;100199.50;4460368;32;20051;-75
2021/01/27 11:43:50;;;;;;;34.53;6.72;;;;;;;13.42;65.25;100199.16;4458599;32;20613;-74
2021/01/27 11:46:19;;;;;;;34.45;6.35;;;;;;;13.00;65.54;100196.16;4452443;32;20403;-73
2021/01/27 11:48:45;;;;;;;37.15;7.03;;;;;;;13.08;66.00;100203.09;4453512;32;20067;-76
2021/01/27 11:51:12;;;;;;;39.80;6.35;;;;;;;12.90;66.25;100191.72;4429445;32;20071;-75
2021/01/27 11:53:39;;;;;;;56.35;7.97;;;;;;;12.91;67.26;100187.62;4431958;32;20053;-75
2021/01/27 11:56:06;;;;;;;41.13;7.05;;;;;;;13.07;66.67;100178.12;4447860;32;20412;-74
2021/01/27 11:58:32;;;;;;;47.35;7.28;;;;;;;12.91;66.88;100181.19;4446087;32;20106;-76
2021/01/27 12:00:59;;;;;;;41.95;8.05;;;;;;;13.14;66.22;100172.16;4449472;32;20028;-76
2021/01/27 12:03:24;;;;;;;42.58;7.72;;;;;;;13.23;66.40;100175.75;4447270;32;20048;-75
2021/01/27 12:05:50;;;;;;;34.65;7.82;;;;;;;13.15;65.64;100174.53;4445918;32;20049;-76
2021/01/27 12:08:16;;;;;;;39.75;7.47;;;;;;;13.17;65.47;100182.53;4448461;32;20075;-76
2021/01/27 12:10:43;;;;;;;34.20;7.75;;;;;;;13.32;66.04;100184.25;4448841;32;20036;-77
2021/01/27 12:13:08;;;;;;;34.30;6.30;;;;;;;13.31;64.98;100187.53;4446588;32;20046;-76
2021/01/27 12:15:34;;;;;;;50.78;7.03;;;;;;;13.42;65.41;100177.34;4447649;32;20095;-75
2021/01/27 12:18:00;;;;;;;32.72;6.65;;;;;;;13.45;64.84;100172.78;4446241;32;20072;-75
2021/01/27 12:20:26;;;;;;;36.88;7.07;;;;;;;13.31;64.85;100174.19;4447517;32;20063;-75
2021/01/27 12:22:51;;;;;;;38.75;6.18;;;;;;;13.23;64.56;100169.34;4447266;32;20068;-74
2021/01/27 12:25:17;;;;;;;45.28;7.85;;;;;;;13.04;65.36;100173.41;4434341;32;20096;-74
2021/01/27 12:27:43;;;;;;;40.65;7.40;;;;;;;13.28;65.14;100163.84;4447181;32;20097;-74
2021/01/27 12:30:11;;;;;;;34.20;6.72;;;;;;;13.41;64.81;100161.63;4446914;32;20052;-75
2021/01/27 12:32:38;;;;;;;32.55;6.62;;;;;;;13.62;64.92;100169.16;4447589;32;20111;-75
2021/01/27 12:35:05;;;;;;;27.75;5.53;;;;;;;13.46;64.71;100165.87;4436764;32;20119;-78
2021/01/27 12:37:30;;;;;;;32.85;6.20;;;;;;;13.78;63.51;100173.72;4446557;32;20093;-78
2021/01/27 12:39:56;;;;;;;39.25;6.40;;;;;;;13.86;62.80;100161.59;4445753;32;20041;-78
2021/01/27 12:42:22;;;;;;;41.10;7.00;;;;;;;13.87;62.10;100153.91;4438692;32;20046;-77
2021/01/27 12:44:47;;;;;;;35.60;6.87;;;;;;;13.97;62.48;100156.19;4446284;32;20072;-77
2021/01/27 12:47:13;;;;;;;29.48;6.18;;;;;;;13.91;62.91;100155.28;4448457;32;20083;-77
2021/01/27 12:49:40;;;;;;;40.30;7.35;;;;;;;14.08;61.81;100162.16;4447431;32;20372;-78
2021/01/27 12:52:06;;;;;;;43.05;7.45;;;;;;;14.26;61.75;100157.72;4449243;32;20029;-77
2021/01/27 12:54:33;;;;;;;47.28;7.62;;;;;;;14.26;61.83;100150.00;4447521;32;20033;-77
2021/01/27 12:56:58;;;;;;;41.85;7.18;;;;;;;14.21;61.57;100144.97;4446579;32;20410;-78
2021/01/27 12:59:24;;;;;;;37.05;6.47;;;;;;;14.17;61.36;100146.41;4446953;32;20077;-77
2021/01/27 13:01:51;;;;;;;44.63;7.78;;;;;;;14.26;61.69;100147.16;4448273;32;20052;-77
2021/01/27 13:04:17;;;;;;;37.28;6.70;;;;;;;14.35;61.63;100152.00;4446736;32;20060;-77
2021/01/27 13:06:43;;;;;;;34.78;6.18;;;;;;;14.30;61.55;100152.66;4442836;32;20479;-76
2021/01/27 13:09:09;;;;;;;39.38;6.60;;;;;;;14.39;61.01;100152.63;4445817;32;20041;-77
2021/01/27 13:11:34;;;;;;;30.98;7.28;;;;;;;14.36;60.23;100150.75;4446373;32;20347;-76
2021/01/27 13:14:00;;;;;;;37.78;6.62;;;;;;;14.22;59.49;100143.72;4442927;32;20412;-75
2021/01/27 13:16:27;;;;;;;38.03;8.25;;;;;;;14.22;59.97;100149.37;4429180;32;20029;-74
2021/01/27 13:18:53;;;;;;;35.67;6.87;;;;;;;14.28;60.28;100152.34;4444083;32;20044;-75
2021/01/27 13:21:19;;;;;;;35.22;6.15;;;;;;;14.30;59.59;100155.50;4441781;32;20068;-77
2021/01/27 13:23:47;;;;;;;30.15;6.60;;;;;;;14.21;59.98;100155.50;4433417;32;20720;-77
2021/01/27 13:26:15;;;;;;;28.77;6.05;;;;;;;14.22;60.19;100157.06;4445615;32;20033;-76
2021/01/27 13:28:42;;;;;;;44.70;7.43;;;;;;;14.29;59.41;100159.59;4443575;32;20077;-75
2021/01/27 13:31:08;;;;;;;36.40;6.80;;;;;;;14.28;59.94;100158.81;4445007;32;20112;-76
2021/01/27 13:33:34;;;;;;;34.20;6.72;;;;;;;14.39;60.14;100163.97;4446664;32;20067;-77
2021/01/27 13:36:00;;;;;;;39.47;6.50;;;;;;;14.36;60.02;100156.41;4443840;32;20037;-76
2021/01/27 13:38:25;;;;;;;33.05;7.07;;;;;;;14.42;60.14;100163.00;4424473;32;20382;-76
2021/01/27 13:40:52;;;;;;;40.58;7.18;;;;;;;14.57;59.58;100164.62;4429480;32;20090;-77
2021/01/27 13:43:18;;;;;;;39.47;7.35;;;;;;;14.63;58.94;100153.47;4431730;32;20045;-79
2021/01/27 13:45:44;;;;;;;27.13;5.00;;;;;;;14.83;58.10;100147.97;4430048;32;20085;-79
2021/01/27 13:48:10;;;;;;;31.67;5.28;;;;;;;14.66;58.00;100144.00;4431241;32;20084;-76
2021/01/27 13:50:38;;;;;;;35.40;5.60;;;;;;;14.40;57.51;100154.19;4428605;32;20065;-77
2021/01/27 13:53:04;;;;;;;30.27;5.82;;;;;;;13.82;60.17;100146.03;4431430;32;20045;-77
2021/01/27 13:55:30;;;;;;;29.95;5.50;;;;;;;13.65;60.70;100151.25;4428941;32;20102;-78
2021/01/27 13:57:56;;;;;;;32.10;5.62;;;;;;;13.60;60.95;100157.53;4431804;32;20045;-78
2021/01/27 14:00:23;;;;;;;39.40;6.85;;;;;;;13.52;60.86;100153.47;4431710;32;20088;-79
2021/01/27 14:02:49;;;;;;;33.17;6.03;;;;;;;13.40;60.89;100156.44;4430047;32;20351;-75
2021/01/27 14:05:19;;;;;;;35.55;6.05;;;;;;;13.28;61.03;100151.75;4425582;32;20442;-77
2021/01/27 14:07:48;;;;;;;37.42;7.07;;;;;;;13.28;61.93;100165.87;4429689;32;20113;-75
2021/01/27 14:10:14;;;;;;;35.40;6.78;;;;;;;13.30;62.10;100158.50;4431760;32;20046;-78
2021/01/27 14:12:40;;;;;;;35.47;6.62;;;;;;;13.35;61.90;100157.88;4432192;32;20033;-78
2021/01/27 14:15:06;;;;;;;39.67;7.30;;;;;;;13.50;62.06;100166.53;4433038;32;20090;-78
2021/01/27 14:17:33;;;;;;;34.70;5.65;;;;;;;13.55;61.63;100171.53;4431957;32;20056;-76
2021/01/27 14:20:01;;;;;;;33.40;5.72;;;;;;;13.75;59.92;100175.41;4431997;32;20358;-77
2021/01/27 14:22:27;;;;;;;35.78;5.53;;;;;;;13.58;60.79;100168.53;4429757;32;20069;-76
2021/01/27 14:24:52;;;;;;;33.80;5.90;;;;;;;13.30;61.41;100175.47;4429034;32;20436;-77
2021/01/27 14:27:18;;;;;;;36.60;5.45;;;;;;;12.51;61.91;100071.19;4429506;32;20347;-77
2021/01/27 14:29:44;;;;;;;35.67;5.80;;;;;;;13.18;61.76;100165.09;4430165;32;20086;-76
2021/01/27 14:32:09;;;;;;;38.63;6.80;;;;;;;13.21;62.42;100160.53;4432085;32;20391;-76
2021/01/27 14:34:35;;;;;;;32.88;5.47;;;;;;;13.31;61.94;100171.38;4429648;32;20092;-76
2021/01/27 14:37:01;;;;;;;32.08;5.45;;;;;;;13.21;62.58;100164.16;4428022;32;20472;-77
2021/01/27 14:39:26;;;;;;;33.50;5.53;;;;;;;13.12;61.93;100164.16;4433285;32;20479;-77
2021/01/27 14:41:52;;;;;;;36.78;6.37;;;;;;;12.96;62.51;100166.47;4437797;32;20021;-77
2021/01/27 14:44:18;;;;;;;32.90;5.95;;;;;;;12.95;62.87;100156.41;4431408;32;20060;-77
2021/01/27 14:46:46;;;;;;;37.10;5.78;;;;;;;13.00;63.27;100164.28;4441011;32;20033;-77
2021/01/27 14:49:12;;;;;;;24.70;5.05;;;;;;;13.05;62.49;100158.81;4441387;32;20045;-77
2021/01/27 14:51:39;;;;;;;35.40;5.72;;;;;;;12.93;63.34;100161.75;4440647;32;20444;-77
2021/01/27 14:54:05;;;;;;;35.50;6.18;;;;;;;12.75;63.44;100153.25;4444628;32;20080;-77